Time;durP1;ratioP1;P1;durP2;ratioP2;P2;SDS_P1;SDS_P2;PMS_P1;PMS_P2;Temp;Humidity;BMP_temperature;BMP_pressure;BME280_temperature;BME280_humidity;BME280_pressure;Samples;Min_cycle;Max_cycle;Signal;HPM_P1;HPM_P2
2021/10/10 00:01:19;;;;;;;;;47.75;38.75;;;;;19.99;100.00;102174.91;5039345;28;45348;-85
2021/10/10 00:03:44;;;;;;;;;51.00;39.75;;;;;20.04;100.00;102171.84;5030574;28;45190;-85
2021/10/10 00:06:10;;;;;;;;;54.50;41.75;;;;;20.04;100.00;102167.31;5036993;28;45498;-85
2021/10/10 00:08:35;;;;;;;;;52.75;40.50;;;;;20.05;100.00;102171.72;5040801;28;45298;-85
2021/10/10 00:11:01;;;;;;;;;54.25;39.00;;;;;20.02;100.00;102163.94;5056196;28;45270;-84
2021/10/10 00:13:26;;;;;;;;;53.75;40.75;;;;;20.11;100.00;102165.00;5047489;28;45343;-85
2021/10/10 00:15:52;;;;;;;;;53.50;37.75;;;;;20.09;100.00;102159.75;5043744;28;45625;-85
2021/10/10 00:18:17;;;;;;;;;52.50;40.00;;;;;20.09;100.00;102165.13;5054021;28;46075;-85
2021/10/10 00:20:43;;;;;;;;;54.25;42.00;;;;;20.00;100.00;102168.56;5038396;28;45350;-85
2021/10/10 00:23:08;;;;;;;;;48.25;38.00;;;;;20.09;100.00;102170.47;5035944;28;45648;-84
2021/10/10 00:25:33;;;;;;;;;54.25;41.75;;;;;20.04;100.00;102166.47;5117305;27;45597;-85
2021/10/10 00:27:59;;;;;;;;;51.75;40.00;;;;;20.02;100.00;102163.09;5037574;28;48293;-85
2021/10/10 00:30:25;;;;;;;;;52.50;37.75;;;;;20.02;100.00;102163.09;5033876;28;45434;-85
2021/10/10 00:32:51;;;;;;;;;52.00;41.50;;;;;19.99;100.00;102163.34;5033674;28;45461;-84
2021/10/10 00:35:17;;;;;;;;;50.75;40.25;;;;;19.96;100.00;102166.25;5029536;28;45465;-85
2021/10/10 00:37:43;;;;;;;;;51.75;40.00;;;;;19.79;100.00;102173.91;5034086;27;48304;-85
2021/10/10 00:40:09;;;;;;;;;49.75;36.75;;;;;19.85;100.00;102164.50;5035615;28;45308;-85
2021/10/10 00:42:35;;;;;;;;;50.00;37.75;;;;;19.82;100.00;102169.28;5033948;28;45321;-85
2021/10/10 00:45:00;;;;;;;;;55.50;42.50;;;;;19.71;100.00;102167.50;5030600;28;45445;-85
2021/10/10 00:47:26;;;;;;;;;47.75;39.75;;;;;19.74;100.00;102172.59;5033011;28;46257;-85
2021/10/10 00:49:51;;;;;;;;;48.25;39.50;;;;;19.65;100.00;102170.69;5035621;28;45446;-85
2021/10/10 00:52:17;;;;;;;;;49.00;37.50;;;;;19.61;100.00;102169.22;5034056;28;45341;-84
2021/10/10 00:54:47;;;;;;;;;54.25;39.75;;;;;19.68;100.00;102167.72;5031263;28;45519;-85
2021/10/10 00:57:14;;;;;;;;;49.50;40.75;;;;;19.71;100.00;102167.50;5032430;28;45331;-85
2021/10/10 00:59:44;;;;;;;;;50.50;40.00;;;;;19.65;100.00;102166.19;5022541;28;45905;-85
2021/10/10 01:02:10;;;;;;;;;47.25;37.00;;;;;19.65;100.00;102165.34;5020657;28;45511;-85
2021/10/10 01:04:35;;;;;;;;;47.50;34.00;;;;;19.53;100.00;102164.50;5030512;28;45946;-85
2021/10/10 01:07:01;;;;;;;;;55.75;42.25;;;;;19.54;100.00;102162.69;5021370;28;45476;-85
2021/10/10 01:09:27;;;;;;;;;49.75;40.00;;;;;19.52;100.00;102159.28;5028021;28;45328;-85
2021/10/10 01:11:53;;;;;;;;;57.25;42.75;;;;;19.43;100.00;102156.34;5033231;28;45255;-85
2021/10/10 01:14:19;;;;;;;;;52.50;38.25;;;;;19.40;100.00;102161.09;5030901;28;45364;-85
2021/10/10 01:16:44;;;;;;;;;52.50;42.25;;;;;19.47;100.00;102167.69;5043306;28;48315;-85
2021/10/10 01:19:09;;;;;;;;;56.00;40.50;;;;;19.53;100.00;102163.66;5038096;28;45279;-85
2021/10/10 01:21:35;;;;;;;;;47.25;36.50;;;;;19.44;100.00;102162.56;5035393;28;45401;-85
2021/10/10 01:24:03;;;;;;;;;52.00;38.50;;;;;19.39;100.00;102156.75;5036886;28;45558;-84
2021/10/10 01:26:29;;;;;;;;;57.25;43.75;;;;;19.40;100.00;102161.94;5042758;28;48517;-85
2021/10/10 01:28:55;;;;;;;;;61.50;44.50;;;;;19.34;100.00;102156.25;5035026;28;45837;-85
2021/10/10 01:31:20;;;;;;;;;52.50;43.00;;;;;19.31;100.00;102157.34;5037965;28;45378;-85
2021/10/10 01:33:46;;;;;;;;;51.75;39.00;;;;;19.24;100.00;102148.13;5041151;28;45533;-85
2021/10/10 01:36:13;;;;;;;;;50.75;41.75;;;;;19.30;100.00;102158.31;5029278;28;47096;-85
2021/10/10 01:38:42;;;;;;;;;53.50;39.00;;;;;19.28;100.00;102156.75;5033691;28;45276;-85
2021/10/10 01:41:09;;;;;;;;;55.00;41.50;;;;;19.29;100.00;102156.66;5038584;28;45493;-85
2021/10/10 01:43:35;;;;;;;;;49.75;38.50;;;;;19.22;100.00;102151.88;5038148;28;45573;-85
2021/10/10 01:46:01;;;;;;;;;51.50;38.25;;;;;19.10;100.00;102155.59;5037605;28;45810;-84
2021/10/10 01:48:26;;;;;;;;;53.50;41.25;;;;;19.15;100.00;102151.53;5035588;28;45456;-85
2021/10/10 01:50:52;;;;;;;;;59.50;40.50;;;;;19.13;100.00;102144.59;5038366;28;45738;-85
2021/10/10 01:53:17;;;;;;;;;52.25;39.75;;;;;19.09;100.00;102137.81;5045876;28;45859;-85
2021/10/10 01:55:44;;;;;;;;;56.00;43.00;;;;;19.14;100.00;102141.81;5034001;28;46588;-85
2021/10/10 01:58:11;;;;;;;;;55.00;41.00;;;;;19.15;100.00;102139.97;5031957;28;45561;-85
2021/10/10 02:00:36;;;;;;;;;56.75;39.50;;;;;18.98;100.00;102130.66;5037046;28;45322;-85
2021/10/10 02:03:02;;;;;;;;;53.25;41.00;;;;;19.04;100.00;102139.03;5034873;28;45480;-85
2021/10/10 02:05:27;;;;;;;;;59.75;43.00;;;;;19.07;100.00;102135.25;5045647;28;47259;-85
2021/10/10 02:07:53;;;;;;;;;55.00;41.75;;;;;18.99;100.00;102137.69;5037481;28;45344;-85
2021/10/10 02:10:19;;;;;;;;;61.25;43.75;;;;;18.93;100.00;102132.84;5033959;28;45317;-85
2021/10/10 02:12:44;;;;;;;;;55.25;43.25;;;;;18.94;100.00;102135.38;5037622;28;45454;-85
2021/10/10 02:15:11;;;;;;;;;53.75;42.00;;;;;18.97;100.00;102134.28;5035888;28;45535;-85
2021/10/10 02:17:36;;;;;;;;;53.50;40.25;;;;;18.89;100.00;102132.25;5034627;28;45802;-85
2021/10/10 02:20:04;;;;;;;;;56.25;43.50;;;;;18.85;100.00;102129.91;5055041;28;45453;-85
2021/10/10 02:22:29;;;;;;;;;54.25;37.75;;;;;18.81;100.00;102123.13;5040494;28;45475;-85
2021/10/10 02:24:55;;;;;;;;;55.00;42.50;;;;;18.72;100.00;102130.06;5053185;28;46874;-85
2021/10/10 02:27:20;;;;;;;;;54.25;39.75;;;;;18.66;100.00;102125.22;5034756;28;45352;-85
2021/10/10 02:29:46;;;;;;;;;53.00;41.75;;;;;18.69;100.00;102133.84;5035827;28;45295;-85
2021/10/10 02:32:11;;;;;;;;;47.50;38.75;;;;;18.66;100.00;102134.06;5037607;28;45306;-85
2021/10/10 02:34:36;;;;;;;;;56.75;43.00;;;;;18.62;100.00;102137.97;5034663;28;47315;-85
2021/10/10 02:37:02;;;;;;;;;53.50;39.25;;;;;18.66;100.00;102134.06;5028222;27;45400;-85
2021/10/10 02:39:27;;;;;;;;;48.75;39.00;;;;;18.63;100.00;102134.31;5037522;28;45359;-85
2021/10/10 02:41:53;;;;;;;;;49.50;38.25;;;;;18.65;100.00;102140.41;5035534;28;45711;-85
2021/10/10 02:44:18;;;;;;;;;51.50;39.00;;;;;18.70;100.00;102148.06;5035852;28;47250;-85
2021/10/10 02:46:43;;;;;;;;;55.75;38.50;;;;;18.59;100.00;102148.91;5034659;28;45464;-85
2021/10/10 02:49:09;;;;;;;;;52.75;37.75;;;;;18.61;100.00;102140.75;5035838;28;45458;-85
2021/10/10 02:51:34;;;;;;;;;48.50;38.25;;;;;18.64;100.00;102140.53;5037387;28;45422;-85
2021/10/10 02:53:59;;;;;;;;;49.25;38.00;;;;;18.66;100.00;102152.78;5024194;28;45456;-85
2021/10/10 02:56:25;;;;;;;;;52.50;38.75;;;;;18.55;100.00;102147.44;5035596;28;45461;-84
2021/10/10 02:58:50;;;;;;;;;52.00;41.50;;;;;18.57;100.00;102145.50;5039761;28;45567;-84
2021/10/10 03:01:16;;;;;;;;;49.00;37.50;;;;;18.57;100.00;102140.16;5053956;28;45465;-85
2021/10/10 03:03:41;;;;;;;;;52.50;38.25;;;;;18.61;100.00;102141.63;5056512;28;46858;-85
2021/10/10 03:06:09;;;;;;;;;50.50;39.25;;;;;18.51;100.00;102140.59;5038369;27;45344;-85
2021/10/10 03:08:36;;;;;;;;;53.00;38.00;;;;;18.50;100.00;102138.03;5037080;28;45419;-85
2021/10/10 03:11:02;;;;;;;;;50.50;38.50;;;;;18.49;100.00;102141.69;5028250;28;45600;-85
2021/10/10 03:13:27;;;;;;;;;55.00;39.75;;;;;18.45;100.00;102141.09;5046715;28;47446;-85
2021/10/10 03:15:53;;;;;;;;;58.75;40.50;;;;;18.48;100.00;102143.50;5033764;28;45839;-85
2021/10/10 03:18:18;;;;;;;;;48.25;36.75;;;;;18.41;100.00;102144.13;5035652;28;45362;-85
2021/10/10 03:20:43;;;;;;;;;55.25;39.00;;;;;18.32;100.00;102143.88;5035475;28;45504;-85
2021/10/10 03:23:09;;;;;;;;;45.75;38.00;;;;;18.38;100.00;102141.69;5029996;28;45453;-85
2021/10/10 03:25:34;;;;;;;;;47.25;35.50;;;;;18.43;100.00;102143.03;5036712;28;45437;-85
2021/10/10 03:27:59;;;;;;;;;48.25;38.50;;;;;18.43;100.00;102140.34;5035245;28;45404;-85
2021/10/10 03:30:25;;;;;;;;;53.75;38.25;;;;;18.49;100.00;102144.38;5036902;28;45582;-85
2021/10/10 03:32:50;;;;;;;;;50.25;38.25;;;;;18.45;100.00;102137.56;5038416;28;47119;-85
2021/10/10 03:35:16;;;;;;;;;53.75;40.00;;;;;18.43;100.00;102139.50;5026745;27;45433;-85
2021/10/10 03:37:41;;;;;;;;;53.00;38.25;;;;;18.39;100.00;102144.22;5030369;28;45373;-85
2021/10/10 03:40:09;;;;;;;;;47.50;36.75;;;;;18.46;100.00;102153.50;5031423;28;45427;-85
2021/10/10 03:42:35;;;;;;;;;51.25;38.25;;;;;18.42;100.00;102138.66;5035866;28;47443;-85
2021/10/10 03:45:00;;;;;;;;;46.75;38.75;;;;;18.46;100.00;102139.28;5039270;28;45772;-85
2021/10/10 03:47:26;;;;;;;;;47.00;35.75;;;;;18.45;100.00;102142.91;5028940;28;45353;-85
2021/10/10 03:49:51;;;;;;;;;44.75;35.75;;;;;18.39;100.00;102146.91;5037912;28;45522;-85
2021/10/10 03:52:17;;;;;;;;;45.00;36.00;;;;;18.36;100.00;102133.78;5030227;28;45294;-84
2021/10/10 03:57:24;;;;;;;;;49.25;36.25;;;;;18.29;100.00;102135.25;5030284;28;45157;-85
2021/10/10 03:59:55;;;;;;;;;49.00;35.75;;;;;18.40;100.00;102143.25;5030407;28;45444;-85
2021/10/10 04:02:21;;;;;;;;;51.50;37.50;;;;;18.39;100.00;102141.56;5034954;28;47252;-85
2021/10/10 04:04:47;;;;;;;;;49.00;36.75;;;;;18.44;100.00;102144.75;5036014;28;45321;-85
2021/10/10 04:07:12;;;;;;;;;53.25;38.75;;;;;18.41;100.00;102142.28;5035209;28;45447;-85
2021/10/10 04:09:37;;;;;;;;;53.00;39.50;;;;;18.39;100.00;102136.22;5037456;28;45338;-85
2021/10/10 04:12:03;;;;;;;;;54.25;39.25;;;;;18.34;100.00;102133.06;5038402;28;45744;-85
2021/10/10 04:14:28;;;;;;;;;50.50;38.50;;;;;18.31;100.00;102144.84;5037263;28;45381;-85
2021/10/10 04:16:54;;;;;;;;;47.25;36.25;;;;;18.28;100.00;102146.91;5042636;28;45210;-85
2021/10/10 04:19:19;;;;;;;;;55.25;39.25;;;;;18.25;100.00;102141.78;5030367;28;45273;-85
2021/10/10 04:21:44;;;;;;;;;56.75;41.25;;;;;18.29;100.00;102145.94;5030842;28;45320;-85
2021/10/10 04:24:10;;;;;;;;;49.25;35.75;;;;;18.28;100.00;102147.78;5046356;28;45337;-84
2021/10/10 04:26:35;;;;;;;;;55.75;38.25;;;;;18.27;100.00;102143.38;5044215;28;45218;-85
2021/10/10 04:29:00;;;;;;;;;54.25;35.50;;;;;18.27;100.00;102150.56;5035036;28;45248;-85
2021/10/10 04:31:26;;;;;;;;;51.00;39.00;;;;;18.28;100.00;102145.09;5049969;28;45479;-85
2021/10/10 04:33:51;;;;;;;;;50.00;38.25;;;;;18.22;100.00;102148.22;5038079;28;45248;-85
2021/10/10 04:36:16;;;;;;;;;53.25;38.75;;;;;18.22;100.00;102148.22;5036464;27;45430;-85
2021/10/10 04:38:42;;;;;;;;;52.25;37.50;;;;;18.23;100.00;102152.59;5036188;28;45344;-85
2021/10/10 04:41:07;;;;;;;;;45.75;37.50;;;;;18.23;100.00;102149.06;5037373;28;45464;-85
2021/10/10 04:43:32;;;;;;;;;49.50;38.00;;;;;18.23;100.00;102152.59;5035984;28;45564;-85
2021/10/10 04:45:58;;;;;;;;;55.25;38.75;;;;;18.20;100.00;102158.22;5027548;28;45464;-84
2021/10/10 04:48:23;;;;;;;;;45.25;35.75;;;;;18.17;100.00;102155.75;5034645;28;45638;-85
2021/10/10 04:50:48;;;;;;;;;53.00;40.75;;;;;18.16;100.00;102156.72;5035758;28;45302;-85
2021/10/10 04:53:14;;;;;;;;;48.25;38.25;;;;;18.08;100.00;102152.94;5034619;27;45279;-85
2021/10/10 04:55:39;;;;;;;;;52.00;39.50;;;;;18.11;100.00;102160.75;5041807;28;45389;-85
2021/10/10 04:58:04;;;;;;;;;49.25;39.25;;;;;18.09;100.00;102160.84;5038604;27;45480;-85
2021/10/10 05:00:30;;;;;;;;;53.25;39.25;;;;;18.05;100.00;102163.84;5034060;28;47114;-85
2021/10/10 05:02:55;;;;;;;;;50.75;38.25;;;;;17.98;100.00;102165.31;5031420;28;45822;-84
2021/10/10 05:05:21;;;;;;;;;53.50;39.75;;;;;18.03;100.00;102166.66;5034057;28;45511;-85
2021/10/10 05:07:46;;;;;;;;;51.50;38.75;;;;;17.87;100.00;102158.09;5035670;28;45594;-84
2021/10/10 05:10:12;;;;;;;;;51.75;38.75;;;;;17.75;100.00;102167.91;5038718;28;45442;-85
2021/10/10 05:12:37;;;;;;;;;50.50;39.00;;;;;17.83;100.00;102165.50;5034379;28;45339;-85
2021/10/10 05:15:06;;;;;;;;;51.00;40.75;;;;;17.84;100.00;102166.38;5038520;28;45548;-85
2021/10/10 05:17:31;;;;;;;;;52.25;42.75;;;;;17.80;100.00;102164.88;5033259;28;45317;-85
2021/10/10 05:19:57;;;;;;;;;53.50;36.00;;;;;17.78;100.00;102161.47;5038338;28;45627;-85
2021/10/10 05:22:23;;;;;;;;;46.50;38.50;;;;;17.78;100.00;102150.78;5036716;28;45345;-85
2021/10/10 05:24:48;;;;;;;;;60.00;41.75;;;;;17.70;100.00;102154.03;5034993;28;45270;-85
2021/10/10 05:27:14;;;;;;;;;53.25;39.50;;;;;17.74;100.00;102160.00;5021676;28;45633;-85
2021/10/10 05:29:39;;;;;;;;;57.00;44.75;;;;;17.75;100.00;102161.72;5049078;28;47046;-85
2021/10/10 05:32:05;;;;;;;;;51.25;40.25;;;;;17.68;100.00;102160.44;5032738;28;45379;-83
2021/10/10 05:34:32;;;;;;;;;50.50;37.75;;;;;17.74;100.00;102162.69;5038089;28;45388;-85
2021/10/10 05:36:57;;;;;;;;;57.50;39.25;;;;;17.70;100.00;102163.84;5032552;27;45808;-85
2021/10/10 05:39:23;;;;;;;;;51.25;38.50;;;;;17.76;100.00;102174.06;5037998;28;45478;-85
2021/10/10 05:41:48;;;;;;;;;52.50;42.25;;;;;17.74;100.00;102171.53;5029199;28;45642;-85
2021/10/10 05:44:13;;;;;;;;;57.25;42.25;;;;;17.72;100.00;102173.47;5038750;28;45328;-85
2021/10/10 05:46:39;;;;;;;;;56.00;42.50;;;;;17.71;100.00;102170.91;5038724;28;45514;-85
2021/10/10 05:49:04;;;;;;;;;52.00;39.00;;;;;17.63;100.00;102173.31;5040253;28;47307;-85
2021/10/10 05:51:30;;;;;;;;;51.00;38.50;;;;;17.68;100.00;102179.16;5037324;28;45361;-85
2021/10/10 05:53:55;;;;;;;;;57.75;42.75;;;;;17.71;100.00;102171.75;5035442;28;45361;-84
2021/10/10 05:56:21;;;;;;;;;55.50;41.25;;;;;17.62;100.00;102171.56;5027525;28;45429;-85
2021/10/10 05:58:51;;;;;;;;;52.50;38.50;;;;;17.61;100.00;102175.19;5037284;28;45325;-85
2021/10/10 06:01:16;;;;;;;;;59.75;42.25;;;;;17.74;100.00;102176.03;5035522;28;45388;-84
2021/10/10 06:03:42;;;;;;;;;49.50;39.25;;;;;17.67;100.00;102167.59;5036029;28;45662;-85
2021/10/10 06:06:07;;;;;;;;;55.00;43.75;;;;;17.67;100.00;102180.09;5031796;28;45684;-85
2021/10/10 06:08:33;;;;;;;;;54.75;42.75;;;;;17.62;100.00;102183.13;5035079;28;48266;-85
2021/10/10 06:10:58;;;;;;;;;57.00;39.50;;;;;17.68;100.00;102179.16;5033029;28;45341;-84
2021/10/10 06:13:23;;;;;;;;;53.75;40.50;;;;;17.56;100.00;102180.91;5034236;28;45409;-85
2021/10/10 06:15:50;;;;;;;;;55.50;41.50;;;;;17.61;100.00;102186.75;5026626;28;46711;-85
2021/10/10 06:18:15;;;;;;;;;53.25;38.25;;;;;17.57;100.00;102186.09;5033897;28;45329;-85
2021/10/10 06:20:41;;;;;;;;;52.50;41.25;;;;;17.57;100.00;102187.94;5033797;28;45400;-84
2021/10/10 06:23:06;;;;;;;;;48.50;37.00;;;;;17.58;100.00;102182.47;5037718;28;45381;-85
2021/10/10 06:25:32;;;;;;;;;54.00;41.00;;;;;17.55;100.00;102181.88;5037522;28;45349;-84
2021/10/10 06:27:57;;;;;;;;;53.75;41.25;;;;;17.51;100.00;102186.56;5038198;28;47458;-85
2021/10/10 06:30:22;;;;;;;;;51.50;41.00;;;;;17.50;100.00;102184.84;5053450;28;45998;-85
2021/10/10 06:32:48;;;;;;;;;51.75;39.50;;;;;17.53;100.00;102183.78;5031919;28;45644;-85
2021/10/10 06:35:13;;;;;;;;;54.00;39.75;;;;;17.52;100.00;102192.75;5032306;28;45416;-85
2021/10/10 06:37:38;;;;;;;;;49.75;39.75;;;;;17.61;100.00;102197.44;5035945;27;47166;-85
2021/10/10 06:40:05;;;;;;;;;53.25;40.25;;;;;17.63;100.00;102194.69;5037289;28;45594;-85
2021/10/10 06:42:30;;;;;;;;;51.25;42.00;;;;;17.66;100.00;102200.66;5036038;28;45437;-85
2021/10/10 06:44:55;;;;;;;;;50.75;38.25;;;;;17.70;100.00;102206.59;5036899;28;45427;-85
2021/10/10 06:47:21;;;;;;;;;56.25;40.25;;;;;17.69;100.00;102208.44;5035640;28;47130;-85
2021/10/10 06:49:46;;;;;;;;;54.25;39.00;;;;;17.73;100.00;102209.06;5032142;28;45481;-85
2021/10/10 06:52:13;;;;;;;;;55.50;42.00;;;;;17.69;100.00;102205.75;5037432;28;45517;-85
2021/10/10 06:54:40;;;;;;;;;56.00;43.50;;;;;17.73;100.00;102209.91;5048377;28;45499;-84
2021/10/10 06:57:06;;;;;;;;;53.75;40.50;;;;;17.67;100.00;102209.50;5035844;28;47845;-85
2021/10/10 06:59:32;;;;;;;;;54.00;41.00;;;;;17.64;100.00;102218.63;5045661;28;45472;-85
2021/10/10 07:01:58;;;;;;;;;59.50;43.75;;;;;17.70;100.00;102214.63;5033531;28;45488;-85
2021/10/10 07:04:23;;;;;;;;;54.00;43.00;;;;;17.73;100.00;102217.09;5027281;28;45494;-85
2021/10/10 07:06:49;;;;;;;;;60.75;41.50;;;;;17.65;100.00;102208.78;5025607;28;45467;-85
2021/10/10 07:09:14;;;;;;;;;54.00;41.25;;;;;17.69;100.00;102210.25;5028266;28;45369;-85
2021/10/10 07:11:40;;;;;;;;;53.25;43.50;;;;;17.79;100.00;102206.78;5023407;28;45448;-85
2021/10/10 07:14:06;;;;;;;;;54.75;41.25;;;;;17.99;100.00;102212.44;5037275;28;45781;-85
2021/10/10 07:16:34;;;;;;;;;54.25;42.75;;;;;18.08;100.00;102211.75;5020828;28;47204;-84
2021/10/10 07:18:59;;;;;;;;;53.50;41.25;;;;;18.14;100.00;102212.13;5019639;27;45327;-84
2021/10/10 07:26:24;;;;;;;;;50.00;40.00;;;;;18.26;100.00;102219.22;5016516;28;45605;-84
2021/10/10 07:28:51;;;;;;;;;54.50;42.25;;;;;18.37;100.00;102221.09;5016049;28;45427;-84
2021/10/10 07:31:17;;;;;;;;;51.75;41.00;;;;;18.99;100.00;102216.19;5026369;28;45384;-84
2021/10/10 07:33:43;;;;;;;;;56.25;40.50;;;;;20.21;100.00;102226.75;5023068;28;45628;-84
2021/10/10 07:36:09;;;;;;;;;51.25;39.25;;;;;21.44;100.00;102224.84;5033972;27;48344;-84
2021/10/10 07:38:34;;;;;;;;;50.50;39.75;;;;;22.47;100.00;102208.19;5028609;28;45417;-84
2021/10/10 07:41:01;;;;;;;;;40.00;33.75;;;;;23.43;100.00;102203.25;5017267;28;45966;-84
2021/10/10 07:43:27;;;;;;;;;49.00;38.00;;;;;24.37;100.00;102208.22;5021850;28;45682;-84
2021/10/10 07:45:52;;;;;;;;;49.75;41.75;;;;;25.23;100.00;102200.91;5016346;28;47269;-86
2021/10/10 07:48:19;;;;;;;;;49.25;39.00;;;;;26.13;100.00;102194.63;5019021;28;45506;-86
2021/10/10 07:50:48;;;;;;;;;50.00;37.75;;;;;26.64;100.00;102198.84;5031122;27;45268;-85
2021/10/10 07:53:13;;;;;;;;;48.00;35.50;;;;;27.08;97.77;102201.09;5036143;28;46059;-83
2021/10/10 07:55:39;;;;;;;;;48.00;35.25;;;;;27.69;93.65;102208.38;5026277;28;45431;-83
2021/10/10 07:58:05;;;;;;;;;49.50;38.25;;;;;28.50;90.25;102215.03;5029478;28;45570;-84
2021/10/10 08:00:30;;;;;;;;;45.50;33.25;;;;;29.01;85.60;102216.00;5025438;28;45692;-83
2021/10/10 08:02:58;;;;;;;;;45.25;35.75;;;;;29.57;81.02;102206.25;5018548;28;45561;-84
2021/10/10 08:05:26;;;;;;;;;41.00;35.00;;;;;30.02;77.83;102212.38;5030927;28;48107;-85
2021/10/10 08:07:52;;;;;;;;;46.00;34.25;;;;;30.65;77.11;102213.31;5028943;28;46183;-84
2021/10/10 08:10:18;;;;;;;;;49.50;37.25;;;;;31.13;70.01;102217.81;5041033;28;45472;-84
2021/10/10 08:12:44;;;;;;;;;44.75;35.75;;;;;31.23;68.09;102220.13;5034213;28;45581;-84
2021/10/10 08:15:10;;;;;;;;;35.50;32.00;;;;;31.40;66.73;102215.19;5031489;28;47384;-82
2021/10/10 08:17:36;;;;;;;;;42.25;34.50;;;;;31.79;65.20;102217.16;5017907;28;45313;-87
2021/10/10 08:20:09;;;;;;;;;43.25;35.25;;;;;32.16;63.08;102205.66;5036371;28;45609;-83
2021/10/10 08:22:36;;;;;;;;;39.50;35.00;;;;;32.57;61.34;102226.47;5023337;28;45431;-84
2021/10/10 08:25:07;;;;;;;;;43.50;33.75;;;;;32.94;54.97;102227.66;5029792;28;45909;-84
2021/10/10 08:27:33;;;;;;;;;46.00;34.50;;;;;33.34;58.66;102237.41;5031938;28;45728;-84
2021/10/10 08:29:58;;;;;;;;;44.00;35.00;;;;;33.42;51.03;102234.41;5036808;28;45678;-82
2021/10/10 08:32:24;;;;;;;;;45.00;33.75;;;;;33.57;50.97;102233.31;5037252;27;46836;-83
2021/10/10 08:34:49;;;;;;;;;41.75;33.25;;;;;34.11;51.00;102230.84;5033185;28;46940;-83
2021/10/10 08:37:14;;;;;;;;;39.00;32.00;;;;;34.47;49.65;102234.75;5021805;28;45437;-82
2021/10/10 08:39:40;;;;;;;;;45.75;36.75;;;;;34.45;49.29;102225.91;5018751;28;45559;-82
2021/10/10 08:42:11;;;;;;;;;44.00;34.75;;;;;34.42;47.32;102215.38;5038093;28;45599;-82
2021/10/10 08:44:41;;;;;;;;;36.50;30.50;;;;;34.29;47.58;102213.63;5031557;28;45325;-82
2021/10/10 08:47:14;;;;;;;;;40.00;33.75;;;;;34.70;48.80;102206.66;5027062;27;45549;-82
2021/10/10 08:49:39;;;;;;;;;41.00;34.25;;;;;34.68;45.72;102198.66;5018763;28;46610;-84
2021/10/10 08:52:07;;;;;;;;;37.25;33.00;;;;;34.64;45.42;102202.94;5020333;28;45396;-84
2021/10/10 08:54:33;;;;;;;;;45.25;34.25;;;;;34.76;44.33;102206.63;5021025;28;45427;-83
2021/10/10 08:56:59;;;;;;;;;43.75;36.00;;;;;35.07;44.23;102207.50;5038878;28;45344;-83
2021/10/10 08:59:26;;;;;;;;;42.25;34.00;;;;;35.32;42.98;102219.28;5038085;27;44869;-82
2021/10/10 09:01:54;;;;;;;;;37.50;32.75;;;;;35.33;42.69;102228.34;5028894;28;45438;-83
2021/10/10 09:04:20;;;;;;;;;40.50;33.75;;;;;35.15;42.47;102234.66;5037538;28;46196;-83
2021/10/10 09:06:45;;;;;;;;;42.75;34.00;;;;;35.33;42.10;102250.34;5027835;28;45781;-83
2021/10/10 09:09:31;;;;;;;;;35.50;31.25;;;;;35.26;39.38;102245.75;5031918;28;45434;-83
2021/10/10 09:12:14;;;;;;;;;44.75;34.00;;;;;34.47;40.12;102240.25;5035879;28;45411;-82
2021/10/10 09:14:51;;;;;;;;;39.00;34.25;;;;;34.34;40.96;102243.09;5020320;28;46582;-83
2021/10/10 09:17:21;;;;;;;;;36.75;30.25;;;;;33.85;40.58;102246.66;5020978;28;45297;-83
2021/10/10 09:19:58;;;;;;;;;42.75;32.75;;;;;33.46;39.88;102245.78;5018829;28;45404;-83
2021/10/10 09:22:25;;;;;;;;;35.50;29.75;;;;;33.47;42.50;102260.31;5033979;28;45580;-82
2021/10/10 09:24:52;;;;;;;;;40.00;32.50;;;;;33.50;40.75;102259.91;5020284;28;45423;-82
2021/10/10 09:27:19;;;;;;;;;39.75;33.50;;;;;33.01;40.70;102261.31;5019156;28;45372;-82
2021/10/10 09:29:49;;;;;;;;;39.00;32.25;;;;;32.56;40.78;102263.91;5019991;28;45360;-82
2021/10/10 09:32:20;;;;;;;;;36.25;29.00;;;;;32.32;41.33;102262.66;5018342;28;45515;-82
2021/10/10 09:34:49;;;;;;;;;38.00;31.25;;;;;32.10;42.05;102252.94;5019782;28;46161;-82
2021/10/10 09:37:26;;;;;;;;;35.00;31.00;;;;;31.90;43.00;102258.38;5020409;28;45460;-82
2021/10/10 09:40:21;;;;;;;;;34.50;31.00;;;;;32.00;43.83;102274.38;5034693;28;45519;-82
2021/10/10 09:42:45;;;;;;;;;36.25;30.50;;;;;31.89;43.37;102250.41;5019702;28;45483;-81
2021/10/10 09:45:25;;;;;;;;;35.75;30.50;;;;;31.70;43.22;102265.69;5022617;28;45839;-82
2021/10/10 09:48:02;;;;;;;;;38.00;31.00;;;;;31.23;42.91;102250.16;5018907;28;45478;-82
2021/10/10 09:50:33;;;;;;;;;40.25;31.50;;;;;30.73;43.42;102254.06;5026089;28;45554;-82
2021/10/10 09:53:03;;;;;;;;;28.00;26.75;;;;;30.56;44.92;102260.88;5023967;28;45213;-82
2021/10/10 09:55:30;;;;;;;;;34.50;28.50;;;;;30.55;44.21;102256.44;5021180;28;45599;-82
2021/10/10 09:57:56;;;;;;;;;30.50;28.25;;;;;30.44;44.69;102253.19;5020989;27;45405;-82
2021/10/10 10:00:27;;;;;;;;;30.00;29.25;;;;;30.27;44.84;102254.53;5022165;28;45445;-82
2021/10/10 10:03:08;;;;;;;;;32.50;27.25;;;;;30.06;45.23;102255.38;5021365;27;45609;-82
2021/10/10 10:05:34;;;;;;;;;32.00;29.50;;;;;30.05;46.12;102258.28;5023508;28;46030;-82
2021/10/10 10:08:00;;;;;;;;;35.25;30.50;;;;;30.02;47.30;102255.97;5037281;28;45418;-82
2021/10/10 10:10:28;;;;;;;;;31.75;26.75;;;;;30.15;46.81;102261.53;5019857;28;45414;-82
2021/10/10 10:12:54;;;;;;;;;33.25;30.25;;;;;30.18;47.46;102255.69;5034962;28;45373;-81
2021/10/10 10:15:27;;;;;;;;;33.25;29.00;;;;;30.13;47.55;102252.75;5024234;28;45543;-81
2021/10/10 10:17:54;;;;;;;;;36.75;30.75;;;;;30.07;48.02;102257.06;5031330;28;45568;-81
2021/10/10 10:20:20;;;;;;;;;39.25;31.50;;;;;30.20;47.75;102252.78;5031438;28;45387;-84
2021/10/10 10:22:50;;;;;;;;;32.00;28.00;;;;;30.16;48.04;102252.31;5022356;28;45489;-82
2021/10/10 10:25:16;;;;;;;;;34.50;30.00;;;;;30.07;48.33;102256.22;5022644;28;46313;-83
2021/10/10 10:27:41;;;;;;;;;34.00;30.50;;;;;30.08;48.50;102266.94;5031707;28;45296;-83
2021/10/10 10:30:07;;;;;;;;;35.50;29.00;;;;;30.14;48.74;102259.84;5031124;28;45791;-83
2021/10/10 10:32:34;;;;;;;;;34.00;28.50;;;;;30.17;48.34;102262.19;5034351;28;46860;-82
2021/10/10 10:35:11;;;;;;;;;24.50;24.50;;;;;30.17;48.64;102267.63;5026659;28;45333;-83
2021/10/10 10:37:42;;;;;;;;;26.75;23.75;;;;;30.06;48.33;102262.72;5032760;28;45762;-83
2021/10/10 10:40:27;;;;;;;;;25.50;24.75;;;;;29.96;48.84;102263.03;5023810;28;45539;-82
2021/10/10 10:42:55;;;;;;;;;31.00;24.25;;;;;29.99;49.56;102265.38;5036008;28;45505;-83
2021/10/10 10:45:27;;;;;;;;;27.00;23.75;;;;;29.83;49.20;102273.78;5022003;28;46650;-83
2021/10/10 10:48:01;;;;;;;;;26.50;24.25;;;;;29.72;49.42;102274.28;5029501;28;45402;-83
2021/10/10 10:50:34;;;;;;;;;31.50;28.00;;;;;29.77;48.66;102280.81;5024003;28;45439;-83
2021/10/10 10:53:08;;;;;;;;;29.25;27.00;;;;;29.77;50.06;102269.91;5049361;28;46137;-83
2021/10/10 10:55:45;;;;;;;;;24.00;23.25;;;;;29.85;49.11;102276.31;5019169;28;46529;-83
2021/10/10 10:58:12;;;;;;;;;25.75;22.00;;;;;29.90;50.29;102268.38;5024444;28;45429;-83
2021/10/10 11:00:47;;;;;;;;;31.50;26.25;;;;;29.98;48.89;102257.38;5025106;28;45943;-83
2021/10/10 11:03:22;;;;;;;;;28.00;24.75;;;;;30.13;49.18;102269.09;5034894;28;45246;-83
2021/10/10 11:05:57;;;;;;;;;26.75;25.25;;;;;30.21;48.15;102265.38;5030309;28;45585;-83
2021/10/10 11:08:22;;;;;;;;;27.25;23.00;;;;;30.22;48.33;102261.63;5031247;28;45320;-84
2021/10/10 11:11:00;;;;;;;;;27.00;25.50;;;;;30.10;48.50;102262.13;5027002;28;45441;-84